sensor_id;sensor_type;location;lat;lon;timestamp;pressure;altitude;pressure_sealevel;temperature;humidity
15558;BME280;7880;50.110;9.372;2023-04-06T00:03:25;0.005041694786632434;;;-0.187;100.0
15558;BME280;7880;50.110;9.372;2023-04-06T00:08:33;-0.25712604820146223;;;-0.562;100.0
15558;BME280;7880;50.110;9.372;2023-04-06T00:13:35;-0.4487096704018768;;;-0.687;100.0
15558;BME280;7880;50.110;9.372;2023-04-06T00:18:42;-0.5495429869682994;;;-0.937;100.0
15558;BME280;7880;50.110;9.372;2023-04-06T00:23:48;-0.2974594772735145;;;-0.562;100.0
15558;BME280;7880;50.110;9.372;2023-04-06T00:28:46;-0.30250115459784865;;;-0.5;100.0
15558;BME280;7880;50.110;9.372;2023-04-06T00:33:51;-0.6150845803087577;;;-0.75;100.0
15558;BME280;7880;50.110;9.372;2023-04-06T00:38:56;-0.7209593579580542;;;-0.937;100.0
15558;BME280;7880;50.110;9.372;2023-04-06T00:44:01;-0.4335846628760919;;;-0.75;100.0
15558;BME280;7880;50.110;9.372;2023-04-06T00:49:06;-0.6302095564024057;;;-0.875;100.0
15558;BME280;7880;50.110;9.372;2023-04-06T00:54:11;-0.872208817669889;;;-1.062;100.0
15558;BME280;7880;50.110;9.372;2023-04-06T00:59:15;-0.7764175235992298;;;-1.062;100.0
15558;BME280;7880;50.110;9.372;2023-04-06T01:04:22;-0.6705428131797817;;;-0.875;100.0
15558;BME280;7880;50.110;9.372;2023-04-06T01:09:28;-0.9730416452919599;;;-1.125;100.0
15558;BME280;7880;50.110;9.372;2023-04-06T01:14:29;-1.09404088477022;;;-1.312;100.0
15558;BME280;7880;50.110;9.372;2023-04-06T01:19:40;-0.8873337492346763;;;-1.062;100.0
15558;BME280;7880;50.110;9.372;2023-04-06T01:24:39;-0.7965841205557809;;;-1.062;100.0
15558;BME280;7880;50.110;9.372;2023-04-06T01:29:52;-0.9528750890807715;;;-1.125;100.0
15558;BME280;7880;50.110;9.372;2023-04-06T01:35:02;-0.988166559394449;;;-1.187;100.0
15558;BME280;7880;50.110;9.372;2023-04-06T01:39:53;-0.9680000066757202;;;-1.187;100.0
15558;BME280;7880;50.110;9.372;2023-04-06T01:45:00;-1.0537078235705848;;;-1.25;100.0
15558;BME280;7880;50.110;9.372;2023-04-06T01:50:06;-1.1041241471597458;;;-1.375;100.0
15558;BME280;7880;50.110;9.372;2023-04-06T01:55:07;-1.1747069512901362;;;-1.375;100.0
15558;BME280;7880;50.110;9.372;2023-04-06T02:00:13;-1.1444571850763168;;;-1.312;100.0
15558;BME280;7880;50.110;9.372;2023-04-06T02:05:17;-1.4267879289516714;;;-1.625;100.0
15558;BME280;7880;50.110;9.372;2023-04-06T02:10:26;-1.215039956610417;;;-1.5;100.0
15558;BME280;7880;50.110;9.372;2023-04-06T02:15:29;-1.4570375973766203;;;-1.5;100.0
15558;BME280;7880;50.110;9.372;2023-04-06T02:20:31;-1.3309972431510686;;;-1.5;100.0
15558;BME280;7880;50.110;9.372;2023-04-06T02:25:36;-1.295705911371624;;;-1.375;100.0
15558;BME280;7880;50.110;9.372;2023-04-06T02:30:22;-1.870448682451388;;;-1.937;100.0
15558;BME280;7880;50.110;9.372;2023-04-06T02:35:27;-1.5528281449340284;;;-1.812;100.0
15558;BME280;7880;50.110;9.372;2023-04-06T02:40:30;-1.3511637120507658;;;-1.5;100.0
15558;BME280;7880;50.110;9.372;2023-04-06T02:45:33;-1.578036166302627;;;-1.687;100.0
15558;BME280;7880;50.110;9.372;2023-04-06T02:50:37;-1.4570375973766203;;;-1.687;100.0
15558;BME280;7880;50.110;9.372;2023-04-06T02:55:42;-1.5830777697032317;;;-1.812;100.0
15558;BME280;7880;50.110;9.372;2023-04-06T03:00:47;-1.5024120803689585;;;-1.625;100.0
15558;BME280;7880;50.110;9.372;2023-04-06T03:05:51;-1.578036166302627;;;-1.687;100.0
15558;BME280;7880;50.110;9.372;2023-04-06T03:10:56;-1.673826581146568;;;-1.812;100.0
15558;BME280;7880;50.110;9.372;2023-04-06T03:16:01;-1.7292841417191085;;;-1.937;100.0
15558;BME280;7880;50.110;9.372;2023-04-06T03:21:04;-1.8401991572172847;;;-2.062;100.0
15558;BME280;7880;50.110;9.372;2023-04-06T03:26:08;-1.8401991572172847;;;-1.875;100.0
15558;BME280;7880;50.110;9.372;2023-04-06T03:31:12;-1.7141593559645116;;;-1.875;100.0
15558;BME280;7880;50.110;9.372;2023-04-06T03:36:15;-1.8603655085375066;;;-2.0;100.0
15558;BME280;7880;50.110;9.372;2023-04-06T03:41:20;-1.825074390671216;;;-2.0;100.0
15558;BME280;7880;50.110;9.372;2023-04-06T03:46:24;-1.9611971952894236;;;-2.0;100.0
15558;BME280;7880;50.110;9.372;2023-04-06T03:51:29;-2.0418624608719256;;;-2.125;100.0
15558;BME280;7880;50.110;9.372;2023-04-06T03:56:33;-1.9561556137166918;;;-2.125;100.0
15558;BME280;7880;50.110;9.372;2023-04-06T04:01:37;-2.0368208839558064;;;-2.125;100.0
15558;BME280;7880;50.110;9.372;2023-04-06T04:06:41;-1.8805318552011159;;;-2.0;100.0
15558;BME280;7880;50.110;9.372;2023-04-06T04:11:45;-1.8956566121429206;;;-2.0;100.0
15558;BME280;7880;50.110;9.372;2023-04-06T04:16:49;-2.0670703410869464;;;-2.125;100.0
15558;BME280;7880;50.110;9.372;2023-04-06T04:21:54;-2.0721119162568358;;;-2.187;100.0
15558;BME280;7880;50.110;9.372;2023-04-06T04:27:01;-2.1931096330226865;;;-2.25;100.0
15558;BME280;7880;50.110;9.372;2023-04-06T04:32:02;-2.1426939380762633;;;-2.25;100.0
15558;BME280;7880;50.110;9.372;2023-04-06T04:37:07;-2.198151200916618;;;-2.312;100.0
15558;BME280;7880;50.110;9.372;2023-04-06T04:42:12;-2.3947721217700746;;;-2.437;100.0
15558;BME280;7880;50.110;9.372;2023-04-06T04:47:16;-2.233442168025067;;;-2.25;100.0
15558;BME280;7880;50.110;9.372;2023-04-06T04:52:21;-2.4149383450334425;;;-2.375;100.0
15558;BME280;7880;50.110;9.372;2023-04-06T04:57:27;-2.2031927685195116;;;-2.375;100.0
15558;BME280;7880;50.110;9.372;2023-04-06T05:02:31;-2.2031927685195116;;;-2.312;100.0
15558;BME280;7880;50.110;9.372;2023-04-06T05:07:37;-2.309065620950423;;;-2.375;100.0
15558;BME280;7880;50.110;9.372;2023-04-06T05:12:41;-2.223359036020702;;;-2.312;100.0
15558;BME280;7880;50.110;9.372;2023-04-06T05:17:47;-2.25864999294281;;;-2.312;100.0
15558;BME280;7880;50.110;9.372;2023-04-06T05:22:51;-2.0670703410869464;;;-2.187;100.0
15558;BME280;7880;50.110;9.372;2023-04-06T05:27:54;-2.1074029342969878;;;-2.125;100.0
15558;BME280;7880;50.110;9.372;2023-04-06T05:33:02;-2.1124445071385707;;;-2.125;100.0
15558;BME280;7880;50.110;9.372;2023-04-06T05:38:25;-2.016654573380947;;;-2.062;100.0
15558;BME280;7880;50.110;9.372;2023-04-06T05:43:16;-1.9158229506574571;;;-2.0;100.0
15558;BME280;7880;50.110;9.372;2023-04-06T05:48:15;-1.799866440607002;;;-1.812;100.0
15558;BME280;7880;50.110;9.372;2023-04-06T05:53:18;-1.7393673307669815;;;-1.812;100.0
15558;BME280;7880;50.110;9.372;2023-04-06T05:58:21;-1.6889513738860842;;;-1.687;100.0
15558;BME280;7880;50.110;9.372;2023-04-06T06:03:27;-1.578036166302627;;;-1.5;100.0
15558;BME280;7880;50.110;9.372;2023-04-06T06:08:32;-1.4570375973766203;;;-1.375;100.0
15558;BME280;7880;50.110;9.372;2023-04-06T06:13:39;-1.290664291381836;;;-1.187;100.0
15558;BME280;7880;50.110;9.372;2023-04-06T06:18:42;-1.1545404416450764;;;-1.0;100.0
15558;BME280;7880;50.110;9.372;2023-04-06T06:23:48;-1.043624555360293;;;-0.875;100.0
15558;BME280;7880;50.110;9.372;2023-04-06T06:28:49;-0.8268340072594583;;;-0.687;100.0
15558;BME280;7880;50.110;9.372;2023-04-06T06:33:54;-0.6402928723429795;;;-0.562;100.0
15558;BME280;7880;50.110;9.372;2023-04-06T06:39:01;-0.37308460657950493;;;-0.312;100.0
15558;BME280;7880;50.110;9.372;2023-04-06T06:44:04;-0.20670923566794955;;;-0.125;100.0
15558;BME280;7880;50.110;9.372;2023-04-06T06:49:12;0.03025017308536917;;;0.125;100.0
15558;BME280;7880;50.110;9.372;2023-04-06T06:54:13;0.23191826140973718;;;0.375;100.0
15558;BME280;7880;50.110;9.372;2023-04-06T06:59:18;0.5192960918473546;;;0.625;100.0
15558;BME280;7880;50.110;9.372;2023-04-06T07:04:23;0.8823010187188629;;;0.937;100.0
15558;BME280;7880;50.110;9.372;2023-04-06T07:09:28;1.1192633820930495;;;1.25;100.0
15558;BME280;7880;50.110;9.372;2023-04-06T07:14:37;1.2755580587370787;;;1.437;100.0
15558;BME280;7880;50.110;9.372;2023-04-06T07:19:36;1.5074797072506043;;;1.687;100.0
15558;BME280;7880;50.110;9.372;2023-04-06T07:24:39;1.7999035331478808;;;1.937;100.0
15558;BME280;7880;50.110;9.372;2023-04-06T07:29:49;1.961241235496709;;;2.125;100.0
15558;BME280;7880;50.110;9.372;2023-04-06T07:34:33;2.1427465068700258;;;2.312;100.0
15558;BME280;7880;50.110;9.372;2023-04-06T07:39:47;2.480548988375813;;;2.625;100.0
15558;BME280;7880;50.110;9.372;2023-04-06T07:44:41;2.7023901347070933;;;2.875;100.0
15558;BME280;7880;50.110;9.372;2023-04-06T07:49:48;2.9998598288802896;;;3.187;100.0
15558;BME280;7880;50.110;9.372;2023-04-06T07:54:50;3.251953583123395;;;3.375;100.0
15558;BME280;7880;50.110;9.372;2023-04-06T07:59:54;3.448587216529995;;;3.562;100.0
15558;BME280;7880;50.110;9.372;2023-04-06T08:04:56;3.6805146351689473;;;3.875;100.0
15558;BME280;7880;50.110;9.372;2023-04-06T08:10:00;3.9628618890652434;;;4.125;100.0
15558;BME280;7880;50.110;9.372;2023-04-06T08:15:06;4.245210055657663;;;4.437;98.4741030828303
15558;BME280;7880;50.110;9.372;2023-04-06T08:20:13;4.567894792207516;;;4.812;96.86779645562403
15558;BME280;7880;50.110;9.372;2023-04-06T08:25:17;4.744363511732081;;;4.937;93.31325633558076
15558;BME280;7880;50.110;9.372;2023-04-06T08:30:20;5.072092079580761;;;5.312;92.27268376866006
15558;BME280;7880;50.110;9.372;2023-04-06T08:35:25;5.2233518333174285;;;5.437;90.99517916814507
15558;BME280;7880;50.110;9.372;2023-04-06T08:40:29;5.3998218770662785;;;5.562;88.43589017452263
15558;BME280;7880;50.110;9.372;2023-04-06T08:45:33;5.808225345611572;;;6.062;88.84893430436205
15558;BME280;7880;50.110;9.372;2023-04-06T08:50:39;5.934276184492046;;;6.187;86.74947457464846
15558;BME280;7880;50.110;9.372;2023-04-06T08:55:51;6.009906775131822;;;6.25;84.80255693484054
15558;BME280;7880;50.110;9.372;2023-04-06T09:00:50;5.984696570975939;;;6.312;84.69068872647036
15558;BME280;7880;50.110;9.372;2023-04-06T09:05:54;6.504028245457448;;;6.687;82.81666216977405
15558;BME280;7880;50.110;9.372;2023-04-06T09:10:58;6.5847014039987695;;;6.812;80.73977120996032
15558;BME280;7880;50.110;9.372;2023-04-06T09:16:03;6.781342540081823;;;7.0;75.31116419638178
15558;BME280;7880;50.110;9.372;2023-04-06T09:21:16;8.651976507995277;;;8.562;94.58792232055049
15558;BME280;7880;50.110;9.372;2023-04-06T09:26:17;7.638501380482921;;;8.187;74.7527143723558
15558;BME280;7880;50.110;9.372;2023-04-06T09:31:21;7.729259867785731;;;8.062;78.44860602430643
15558;BME280;7880;50.110;9.372;2023-04-06T09:36:35;7.809934157883982;;;8.062;74.61140094648752
15558;BME280;7880;50.110;9.372;2023-04-06T09:41:30;7.880524222837994;;;8.062;75.41236279200268
15558;BME280;7880;50.110;9.372;2023-04-06T09:46:35;7.7746391467982905;;;8.125;76.03489343643143
15558;BME280;7880;50.110;9.372;2023-04-06T09:51:40;7.8704399243521035;;;8.125;76.48801007785
15558;BME280;7880;50.110;9.372;2023-04-06T09:56:46;7.59312217219267;;;7.812;70.13211498320209
15558;BME280;7880;50.110;9.372;2023-04-06T10:01:48;7.951114344835514;;;8.187;70.00883241382877
15558;BME280;7880;50.110;9.372;2023-04-06T10:06:52;7.850271330872784;;;8.125;70.63421628521512
15558;BME280;7880;50.110;9.372;2023-04-06T10:11:59;8.0469153159298;;;8.187;72.1055479354312
15558;BME280;7880;50.110;9.372;2023-04-06T10:17:05;8.334318859601627;;;8.562;71.90448958883958
15558;BME280;7880;50.110;9.372;2023-04-06T10:22:08;8.97971973689855;;;9.062;71.17135150841088
15558;BME280;7880;50.110;9.372;2023-04-06T10:27:11;8.65701870220364;;;9.0;65.67720719702768
15558;BME280;7880;50.110;9.372;2023-04-06T10:32:14;8.218348894850351;;;8.5;65.58393632686521
15558;BME280;7880;50.110;9.372;2023-04-06T10:37:20;8.530963934306055;;;8.687;62.86373504959264
15558;BME280;7880;50.110;9.372;2023-04-06T10:42:36;8.631807734072208;;;8.75;66.23207018703553
15558;BME280;7880;50.110;9.372;2023-04-06T10:47:38;8.853664503339678;;;9.0;64.32968761054934
15558;BME280;7880;50.110;9.372;2023-04-06T10:52:32;8.868791121762479;;;9.0;61.49629226501106
15558;BME280;7880;50.110;9.372;2023-04-06T10:57:36;8.909128783695632;;;9.125;61.39345524976181
15558;BME280;7880;50.110;9.372;2023-04-06T11:02:41;9.45368904285715;;;9.437;66.4685786813704
15558;BME280;7880;50.110;9.372;2023-04-06T11:07:46;8.838537887536223;;;9.062;60.26332756019101
15558;BME280;7880;50.110;9.372;2023-04-06T11:12:54;8.853664503339678;;;9.0;61.94252016509999
15558;BME280;7880;50.110;9.372;2023-04-06T11:17:54;8.878875535499537;;;8.937;60.533999844312746
15558;BME280;7880;50.110;9.372;2023-04-06T11:23:00;8.717525055404986;;;8.812;62.64410007211661
15558;BME280;7880;50.110;9.372;2023-04-06T11:28:04;8.838537887536223;;;8.937;64.26036295247818
15558;BME280;7880;50.110;9.372;2023-04-06T11:33:08;8.813326867017896;;;8.875;63.65423233693272
15558;BME280;7880;50.110;9.372;2023-04-06T11:38:12;9.463773524115094;;;9.437;63.96971132518261
15558;BME280;7880;50.110;9.372;2023-04-06T11:43:17;10.144478700403123;;;10.187;65.48433113193504
15558;BME280;7880;50.110;9.372;2023-04-06T11:48:31;9.8066465795564;;;10.062;59.17839905320198
15558;BME280;7880;50.110;9.372;2023-04-06T11:53:29;9.67050564645324;;;9.937;61.875721223803886
15558;BME280;7880;50.110;9.372;2023-04-06T11:58:31;9.45368904285715;;;9.562;62.8476191520346
15558;BME280;7880;50.110;9.372;2023-04-06T12:03:36;10.089013635698938;;;10.062;65.65972929770942
15558;BME280;7880;50.110;9.372;2023-04-06T12:08:40;9.912534118653275;;;10.062;61.399747364933944
15558;BME280;7880;50.110;9.372;2023-04-06T12:13:43;10.805019905191148;;;10.75;59.6334481965938
15558;BME280;7880;50.110;9.372;2023-04-06T12:18:51;10.179774669004837;;;10.437;58.300528571346575
15558;BME280;7880;50.110;9.372;2023-04-06T12:23:58;9.705801423551748;;;9.812;57.33692034565333
15558;BME280;7880;50.110;9.372;2023-04-06T12:29:05;10.189859234081814;;;10.125;60.830153570552866
15558;BME280;7880;50.110;9.372;2023-04-06T12:34:07;9.872195993387141;;;10.0;56.81183607998328
15558;BME280;7880;50.110;9.372;2023-04-06T12:38:45;9.756223987002159;;;9.875;58.5953715839052
15558;BME280;7880;50.110;9.372;2023-04-06T12:43:46;9.67554789945134;;;9.75;57.38820077860501
15558;BME280;7880;50.110;9.372;2023-04-06T12:49:01;9.846984674554552;;;9.937;57.36499016756281
15558;BME280;7880;50.110;9.372;2023-04-06T12:54:05;9.660421141330152;;;9.687;60.76825870799622
15558;BME280;7880;50.110;9.372;2023-04-06T12:59:09;10.179774669004837;;;10.187;57.39193160012971
15558;BME280;7880;50.110;9.372;2023-04-06T13:04:15;10.053717703768053;;;10.312;56.74129976857171
15558;BME280;7880;50.110;9.372;2023-04-06T13:09:20;9.927660920430208;;;9.937;57.506246243621355
15558;BME280;7880;50.110;9.372;2023-04-06T13:14:24;10.265493509266525;;;10.312;56.88881449655326
15558;BME280;7880;50.110;9.372;2023-04-06T13:19:31;10.204986083880067;;;10.312;55.79187416989829
15558;BME280;7880;50.110;9.372;2023-04-06T13:24:35;10.38146619173349;;;10.312;59.63695232955479
15558;BME280;7880;50.110;9.372;2023-04-06T13:29:37;10.542819745192537;;;10.562;54.008079328117766
15558;BME280;7880;50.110;9.372;2023-04-06T13:34:45;10.648708176612853;;;10.75;51.78811746926642
15558;BME280;7880;50.110;9.372;2023-04-06T13:39:55;10.779808317148127;;;10.875;55.468590199270416
15558;BME280;7880;50.110;9.372;2023-04-06T13:44:53;10.573073569644475;;;10.625;54.57566671055641
15558;BME280;7880;50.110;9.372;2023-04-06T13:49:58;10.34617014164105;;;10.5;53.50790859183633
15558;BME280;7880;50.110;9.372;2023-04-06T13:55:03;10.159605542343343;;;10.25;53.098417503343875
15558;BME280;7880;50.110;9.372;2023-04-06T14:00:08;10.210028367728228;;;10.25;52.740637237705016
15558;BME280;7880;50.110;9.372;2023-04-06T14:05:13;10.104140468034894;;;10.125;50.29189010614455
15558;BME280;7880;50.110;9.372;2023-04-06T14:10:17;10.341127849934855;;;10.375;51.23168626668158
15558;BME280;7880;50.110;9.372;2023-04-06T14:15:22;10.457100632810034;;;10.5;52.3159974194865
15558;BME280;7880;50.110;9.372;2023-04-06T14:20:30;10.52265053471201;;;10.562;52.821468157213104
15558;BME280;7880;50.110;9.372;2023-04-06T14:25:34;10.578115874738433;;;10.687;50.286222309226595
15558;BME280;7880;50.110;9.372;2023-04-06T14:30:39;10.638623558566906;;;10.687;52.439298803279335
15558;BME280;7880;50.110;9.372;2023-04-06T14:35:40;10.411719960306073;;;10.5;51.35594877804832
15558;BME280;7880;50.110;9.372;2023-04-06T14:40:44;10.593242791766533;;;10.562;53.581348317916
15558;BME280;7880;50.110;9.372;2023-04-06T14:45:48;10.68400434894138;;;10.75;54.485088574960855
15558;BME280;7880;50.110;9.372;2023-04-06T14:50:54;10.305831816140563;;;10.437;50.743332629279884
15558;BME280;7880;50.110;9.372;2023-04-06T14:55:58;10.441973739356035;;;10.437;53.22594503606783
15558;BME280;7880;50.110;9.372;2023-04-06T15:01:02;10.638623558566906;;;10.625;53.053649197779855
15558;BME280;7880;50.110;9.372;2023-04-06T15:06:20;10.64366586744436;;;10.75;51.030282384684526
15558;BME280;7880;50.110;9.372;2023-04-06T15:11:12;10.764681367814774;;;10.875;54.552033477397856
15558;BME280;7880;50.110;9.372;2023-04-06T15:16:17;10.467185229901224;;;10.625;50.76997017477666
15558;BME280;7880;50.110;9.372;2023-04-06T15:21:25;10.3260009765625;;;10.312;51.07760947800694
15558;BME280;7880;50.110;9.372;2023-04-06T15:26:33;10.300789526762674;;;10.312;48.71982576313199
15558;BME280;7880;50.110;9.372;2023-04-06T15:31:37;10.527692836895586;;;10.5;51.1004646917038
15558;BME280;7880;50.110;9.372;2023-04-06T15:36:39;10.31087410580949;;;10.312;49.15985780813264
15558;BME280;7880;50.110;9.372;2023-04-06T15:41:42;10.260451222216943;;;10.25;46.88512449125512
15558;BME280;7880;50.110;9.372;2023-04-06T15:46:46;10.189859234081814;;;10.25;46.26853462774563
15558;BME280;7880;50.110;9.372;2023-04-06T15:51:51;10.245324362814426;;;10.25;48.193706701108034
15558;BME280;7880;50.110;9.372;2023-04-06T15:56:56;10.260451222216943;;;10.25;47.83380592124965
15558;BME280;7880;50.110;9.372;2023-04-06T16:02:01;10.210028367728228;;;10.25;47.82713960568028
15558;BME280;7880;50.110;9.372;2023-04-06T16:07:05;10.144478700403123;;;10.187;50.208511603019296
15558;BME280;7880;50.110;9.372;2023-04-06T16:12:10;10.124309581890703;;;10.187;49.826679079232235
15558;BME280;7880;50.110;9.372;2023-04-06T16:17:16;10.099098190298538;;;10.187;48.083681013498
15558;BME280;7880;50.110;9.372;2023-04-06T16:23:36;10.109182746062288;;;10.125;49.031976057711816
15558;BME280;7880;50.110;9.372;2023-04-06T16:28:32;10.078929082263494;;;10.125;49.343464363399534
15558;BME280;7880;50.110;9.372;2023-04-06T16:33:39;10.003294968605042;;;10.062;50.65371561888609
15558;BME280;7880;50.110;9.372;2023-04-06T16:38:44;9.917576385621214;;;9.937;52.813973125511474
15558;BME280;7880;50.110;9.372;2023-04-06T16:43:47;9.887322788179153;;;9.875;50.34295562310734
15558;BME280;7880;50.110;9.372;2023-04-06T16:48:52;9.82681562472717;;;9.812;52.4932743225306
15558;BME280;7880;50.110;9.372;2023-04-06T16:53:58;9.741097214911132;;;9.75;53.34087496023712
15558;BME280;7880;50.110;9.372;2023-04-06T16:59:01;9.655378889205167;;;9.625;53.63856735228902
15558;BME280;7880;50.110;9.372;2023-04-06T17:04:07;9.554533907823497;;;9.562;52.67308984931535
15558;BME280;7880;50.110;9.372;2023-04-06T17:09:20;9.418393367622048;;;9.437;55.692668831093606
15558;BME280;7880;50.110;9.372;2023-04-06T17:14:15;9.373013234703103;;;9.375;56.04934950574191
15558;BME280;7880;50.110;9.372;2023-04-06T17:19:18;9.241915205359692;;;9.25;58.805641380010115
15558;BME280;7880;50.110;9.372;2023-04-06T17:24:28;9.14611292371992;;;9.062;63.58616699464253
15558;BME280;7880;50.110;9.372;2023-04-06T17:29:29;8.924255411722697;;;8.875;65.96362937728904
15558;BME280;7880;50.110;9.372;2023-04-06T17:34:34;8.76794704842032;;;8.625;70.00009956442862
15558;BME280;7880;50.110;9.372;2023-04-06T17:39:40;8.55113268494606;;;8.375;73.94487598286007
15558;BME280;7880;50.110;9.372;2023-04-06T17:44:56;8.228433233499526;;;8.0;82.01870933789003
15558;BME280;7880;50.110;9.372;2023-04-06T17:49:58;7.915819276706316;;;7.625;87.323421776017
15558;BME280;7880;50.110;9.372;2023-04-06T17:55:03;7.941030038200552;;;7.625;91.53793602463581
15558;BME280;7880;50.110;9.372;2023-04-06T18:00:08;7.880524222837994;;;7.562;91.64457966113913
15558;BME280;7880;50.110;9.372;2023-04-06T18:06:56;7.764554860536009;;;7.5;93.3504381303858
15558;BME280;7880;50.110;9.372;2023-04-06T18:12:02;7.618332840554649;;;7.312;95.16977714936608
15558;BME280;7880;50.110;9.372;2023-04-06T18:17:07;7.618332840554649;;;7.25;99.98528183353575
15558;BME280;7880;50.110;9.372;2023-04-06T18:22:12;7.5074059541861065;;;7.187;100.0
15558;BME280;7880;50.110;9.372;2023-04-06T18:27:19;7.431774066970684;;;7.125;97.97705328251338
15558;BME280;7880;50.110;9.372;2023-04-06T18:32:31;7.320847417507321;;;6.937;100.0
15558;BME280;7880;50.110;9.372;2023-04-06T18:37:26;7.194794577738503;;;6.812;100.0
15558;BME280;7880;50.110;9.372;2023-04-06T18:42:30;6.851931773830438;;;6.562;100.0
15558;BME280;7880;50.110;9.372;2023-04-06T18:47:36;6.932605253678048;;;6.5;100.0
15558;BME280;7880;50.110;9.372;2023-04-06T18:52:43;6.882184320042143;;;6.437;100.0
15558;BME280;7880;50.110;9.372;2023-04-06T18:57:46;7.174626140255714;;;6.812;100.0
15558;BME280;7880;50.110;9.372;2023-04-06T19:02:54;7.093952436890686;;;6.812;100.0
15558;BME280;7880;50.110;9.372;2023-04-06T19:07:55;6.917478970531374;;;6.625;100.0
15558;BME280;7880;50.110;9.372;2023-04-06T19:12:59;7.013278808031464;;;6.687;100.0
15558;BME280;7880;50.110;9.372;2023-04-06T19:18:03;6.660332557797664;;;6.5;100.0
15558;BME280;7880;50.110;9.372;2023-04-06T19:23:08;6.882184320042143;;;6.562;100.0
15558;BME280;7880;50.110;9.372;2023-04-06T19:28:14;6.710753363376716;;;6.437;100.0
15558;BME280;7880;50.110;9.372;2023-04-06T19:33:26;6.8368055046536025;;;6.5;100.0
15558;BME280;7880;50.110;9.372;2023-04-06T19:38:25;6.872100136807421;;;6.562;100.0
15558;BME280;7880;50.110;9.372;2023-04-06T19:43:44;6.741005860693986;;;6.5;100.0
15558;BME280;7880;50.110;9.372;2023-04-06T19:48:34;6.831763415510068;;;6.562;100.0
15558;BME280;7880;50.110;9.372;2023-04-06T19:53:44;6.841847594088176;;;6.562;100.0
15558;BME280;7880;50.110;9.372;2023-04-06T19:58:43;6.771258368488634;;;6.5;100.0
15558;BME280;7880;50.110;9.372;2023-04-06T20:03:46;6.695627118647098;;;6.5;100.0
15558;BME280;7880;50.110;9.372;2023-04-06T20:08:54;6.670416716585168;;;6.562;100.0
15558;BME280;7880;50.110;9.372;2023-04-06T20:13:57;6.549406887969235;;;6.375;100.0
15558;BME280;7880;50.110;9.372;2023-04-06T20:19:01;7.149415599950589;;;7.0;91.15022267406724
15558;BME280;7880;50.110;9.372;2023-04-06T20:24:05;7.305721067130799;;;7.25;89.19545366357444
15558;BME280;7880;50.110;9.372;2023-04-06T20:29:10;7.3359737705031876;;;7.312;89.3759572520461
15558;BME280;7880;50.110;9.372;2023-04-06T20:34:15;7.351100126118399;;;7.375;92.3346140898531
15558;BME280;7880;50.110;9.372;2023-04-06T20:39:20;7.396479208680103;;;7.375;91.64440103997
15558;BME280;7880;50.110;9.372;2023-04-06T20:44:28;7.330931652546861;;;7.312;95.70108788381005
15558;BME280;7880;50.110;9.372;2023-04-06T20:49:29;7.2855526040366385;;;7.312;97.55677983417749
15558;BME280;7880;50.110;9.372;2023-04-06T20:54:33;7.265384145599091;;;7.25;99.62720192377101
15558;BME280;7880;50.110;9.372;2023-04-06T20:59:37;7.23513146667392;;;7.187;99.03719478278725
15558;BME280;7880;50.110;9.372;2023-04-06T21:04:42;7.164541923260549;;;7.125;100.0
15558;BME280;7880;50.110;9.372;2023-04-06T21:09:46;7.02336300756433;;;7.0;100.0
15558;BME280;7880;50.110;9.372;2023-04-06T21:14:49;6.92252106462256;;;6.875;100.0
15558;BME280;7880;50.110;9.372;2023-04-06T21:19:54;6.947731539444066;;;6.875;100.0
15558;BME280;7880;50.110;9.372;2023-04-06T21:24:57;6.9023526900040455;;;6.812;100.0
15558;BME280;7880;50.110;9.372;2023-04-06T21:30:03;6.816637149825692;;;6.75;100.0
15558;BME280;7880;50.110;9.372;2023-04-06T21:35:07;6.952773635281483;;;6.875;100.0
15558;BME280;7880;50.110;9.372;2023-04-06T21:40:12;6.872100136807421;;;6.75;100.0
15558;BME280;7880;50.110;9.372;2023-04-06T21:45:24;6.7510900287947155;;;6.625;100.0
15558;BME280;7880;50.110;9.372;2023-04-06T21:50:21;6.77630045413971;;;6.687;100.0
15558;BME280;7880;50.110;9.372;2023-04-06T21:55:25;6.756132113281637;;;6.625;100.0
15558;BME280;7880;50.110;9.372;2023-04-06T22:00:35;6.791426712839166;;;6.625;100.0
15558;BME280;7880;50.110;9.372;2023-04-06T22:05:35;6.680500876536826;;;6.562;100.0
15558;BME280;7880;50.110;9.372;2023-04-06T22:10:40;6.5847014039987695;;;6.437;100.0
15558;BME280;7880;50.110;9.372;2023-04-06T22:15:42;6.594785554055124;;;6.375;100.0
15558;BME280;7880;50.110;9.372;2023-04-06T22:20:46;6.715795445535332;;;6.5;100.0
15558;BME280;7880;50.110;9.372;2023-04-06T22:25:54;6.660332557797664;;;6.437;100.0
15558;BME280;7880;50.110;9.372;2023-04-06T22:31:03;6.690585037652636;;;6.437;100.0